Time;durP1;ratioP1;P1;durP2;ratioP2;P2;SDS_P1;SDS_P2;PMS_P1;PMS_P2;Temp;Humidity;BMP_temperature;BMP_pressure;BME280_temperature;BME280_humidity;BME280_pressure;Samples;Min_cycle;Max_cycle;Signal;HPM_P1;HPM_P2
2023/09/14 00:01:43;;;;;;;1.20;0.93;;;22.40;59.80;;;;;;5104425;28;20212;-57
2023/09/14 00:04:11;;;;;;;1.52;1.00;;;22.40;59.70;;;;;;5112853;28;20217;-61
2023/09/14 00:06:39;;;;;;;1.88;1.00;;;22.40;59.80;;;;;;5112563;28;20193;-60
2023/09/14 00:09:06;;;;;;;1.33;0.90;;;22.40;59.70;;;;;;5112387;28;20217;-59
2023/09/14 00:11:33;;;;;;;1.02;0.93;;;22.40;59.70;;;;;;5112185;28;20200;-60
2023/09/14 00:14:01;;;;;;;1.10;0.90;;;22.40;59.70;;;;;;5112544;28;20308;-61
2023/09/14 00:16:28;;;;;;;1.88;0.95;;;22.40;60.40;;;;;;5113315;28;20218;-55
2023/09/14 00:18:55;;;;;;;1.40;0.73;;;22.40;59.60;;;;;;5116590;28;20220;-60
2023/09/14 00:21:22;;;;;;;1.33;0.88;;;22.40;59.60;;;;;;5116061;28;20185;-59
2023/09/14 00:23:51;;;;;;;1.10;0.82;;;22.40;59.50;;;;;;5115942;28;20316;-59
2023/09/14 00:26:18;;;;;;;1.67;0.85;;;22.40;59.50;;;;;;5116214;28;20299;-58
2023/09/14 00:28:45;;;;;;;1.05;0.80;;;22.40;59.50;;;;;;5116447;28;20213;-59
2023/09/14 00:31:44;;;;;;;1.23;0.80;;;22.40;59.50;;;;;;5116198;28;20630;-57
2023/09/14 00:34:11;;;;;;;1.30;0.68;;;22.30;59.40;;;;;;5100315;28;20213;-56
2023/09/14 00:36:39;;;;;;;1.33;0.88;;;22.30;59.40;;;;;;5115776;28;20266;-60
2023/09/14 00:39:09;;;;;;;1.00;0.90;;;22.30;59.40;;;;;;5116070;28;20213;-59
2023/09/14 00:41:37;;;;;;;1.10;0.80;;;22.30;59.30;;;;;;5115965;28;20284;-59
2023/09/14 00:44:04;;;;;;;1.40;0.90;;;22.30;59.30;;;;;;5116023;28;20301;-60
2023/09/14 00:46:31;;;;;;;2.00;0.90;;;22.30;59.30;;;;;;5115700;28;20193;-59
2023/09/14 00:48:59;;;;;;;1.42;0.82;;;22.30;59.30;;;;;;5116139;28;20213;-59
2023/09/14 00:51:29;;;;;;;1.77;0.90;;;22.30;59.20;;;;;;5115833;28;20196;-59
2023/09/14 00:53:59;;;;;;;1.20;0.80;;;22.30;59.20;;;;;;5115306;28;20244;-59
2023/09/14 00:56:28;;;;;;;2.08;1.10;;;22.30;59.20;;;;;;5115729;28;20213;-58
2023/09/14 00:58:56;;;;;;;1.95;0.93;;;22.30;59.20;;;;;;5115730;28;20213;-58
2023/09/14 01:01:23;;;;;;;1.45;0.90;;;22.30;59.10;;;;;;5113092;28;20738;-56
2023/09/14 01:03:50;;;;;;;0.90;0.73;;;22.30;59.70;;;;;;5115804;27;20241;-57
2023/09/14 01:06:18;;;;;;;1.25;0.90;;;22.30;59.10;;;;;;5115586;28;20272;-59
2023/09/14 01:08:45;;;;;;;1.15;0.80;;;22.30;59.00;;;;;;5115465;28;20217;-55
2023/09/14 01:11:12;;;;;;;1.77;0.93;;;22.30;59.00;;;;;;5115526;28;20185;-58
2023/09/14 01:13:57;;;;;;;0.60;0.60;;;22.30;59.00;;;;;;5115393;28;20245;-58
2023/09/14 01:16:31;;;;;;;1.02;0.80;;;22.30;58.90;;;;;;5115394;28;20243;-57
2023/09/14 01:19:06;;;;;;;1.00;0.80;;;22.30;59.00;;;;;;5115266;28;20622;-56
2023/09/14 01:21:50;;;;;;;1.25;0.80;;;22.30;58.90;;;;;;5115308;28;20199;-60
2023/09/14 01:24:37;;;;;;;0.80;0.70;;;22.30;58.90;;;;;;5114638;28;20240;-58
2023/09/14 01:27:07;;;;;;;0.60;0.60;;;22.30;58.90;;;;;;5115065;28;20194;-59
2023/09/14 01:29:34;;;;;;;0.60;0.60;;;22.20;58.80;;;;;;5114336;28;20243;-59
2023/09/14 01:32:01;;;;;;;0.88;0.75;;;22.30;58.80;;;;;;5114836;28;20197;-59
2023/09/14 01:34:29;;;;;;;0.63;0.55;;;22.20;58.70;;;;;;5114956;28;20714;-60
2023/09/14 01:36:58;;;;;;;1.58;0.70;;;22.30;58.80;;;;;;5114925;28;20213;-56
2023/09/14 01:39:28;;;;;;;0.90;0.70;;;22.20;58.70;;;;;;5114962;28;20217;-57
2023/09/14 01:41:57;;;;;;;0.70;0.70;;;22.20;58.60;;;;;;5114557;28;20635;-61
2023/09/14 01:44:26;;;;;;;0.60;0.60;;;22.20;58.60;;;;;;5114548;28;20304;-56
2023/09/14 01:46:54;;;;;;;0.47;0.40;;;22.20;58.60;;;;;;5114243;28;20667;-56
2023/09/14 01:49:22;;;;;;;0.75;0.70;;;22.20;58.50;;;;;;5114628;28;20221;-58
2023/09/14 01:51:53;;;;;;;1.05;0.70;;;22.20;58.50;;;;;;5114415;28;20185;-60
2023/09/14 01:54:20;;;;;;;0.85;0.82;;;22.20;58.50;;;;;;5114144;28;20213;-59
2023/09/14 01:56:47;;;;;;;1.02;0.65;;;22.20;58.40;;;;;;5114581;28;20304;-56
2023/09/14 01:59:17;;;;;;;0.60;0.60;;;22.20;59.00;;;;;;5114284;28;20768;-59
2023/09/14 02:01:45;;;;;;;0.93;0.70;;;22.20;58.40;;;;;;5114158;28;20280;-56
2023/09/14 02:04:14;;;;;;;0.80;0.65;;;22.10;58.90;;;;;;5114164;28;20213;-58
2023/09/14 02:06:42;;;;;;;0.73;0.70;;;22.20;58.40;;;;;;5114424;28;20239;-59
2023/09/14 02:09:09;;;;;;;0.98;0.70;;;22.20;58.30;;;;;;5114301;28;20227;-59
2023/09/14 02:11:40;;;;;;;0.90;0.60;;;22.20;58.20;;;;;;5113954;28;20666;-59
2023/09/14 02:14:07;;;;;;;0.70;0.70;;;22.20;58.30;;;;;;5112324;28;20217;-59
2023/09/14 02:16:35;;;;;;;0.70;0.68;;;22.20;58.20;;;;;;5113358;28;20213;-57
2023/09/14 02:19:10;;;;;;;0.60;0.60;;;22.20;58.90;;;;;;5113857;28;20213;-59
2023/09/14 02:21:39;;;;;;;1.45;0.70;;;22.10;58.20;;;;;;5114051;28;20188;-55
2023/09/14 02:24:06;;;;;;;0.90;0.70;;;22.10;58.20;;;;;;5113416;28;20326;-58
2023/09/14 02:26:33;;;;;;;0.63;0.60;;;22.10;58.10;;;;;;5114012;28;20201;-61
2023/09/14 02:29:04;;;;;;;1.17;0.70;;;22.10;58.10;;;;;;5113939;28;20246;-58
2023/09/14 02:31:32;;;;;;;0.63;0.63;;;22.10;58.10;;;;;;5113220;28;20643;-59
2023/09/14 02:34:00;;;;;;;0.80;0.70;;;22.10;58.00;;;;;;5113579;28;20691;-60
2023/09/14 02:36:33;;;;;;;1.17;0.70;;;22.10;58.10;;;;;;5113266;28;20647;-59
2023/09/14 02:39:01;;;;;;;1.10;0.90;;;22.10;58.00;;;;;;5113310;28;20689;-58
2023/09/14 02:41:28;;;;;;;0.80;0.68;;;22.10;58.00;;;;;;5112752;28;20272;-60
2023/09/14 02:43:56;;;;;;;0.60;0.60;;;22.10;57.90;;;;;;5113625;28;20231;-59
2023/09/14 02:46:23;;;;;;;0.70;0.68;;;22.10;58.00;;;;;;5113120;28;20647;-60
2023/09/14 02:48:51;;;;;;;0.50;0.50;;;22.00;57.90;;;;;;5113700;28;20309;-55
2023/09/14 02:51:18;;;;;;;0.77;0.70;;;22.10;58.00;;;;;;5113402;28;20185;-59
2023/09/14 02:53:48;;;;;;;0.77;0.65;;;22.10;57.90;;;;;;5113162;28;20308;-56
2023/09/14 02:56:14;;;;;;;1.38;0.80;;;22.10;57.90;;;;;;5113418;28;20189;-61
2023/09/14 02:58:41;;;;;;;0.82;0.80;;;22.00;57.80;;;;;;5113262;28;20232;-57
2023/09/14 03:01:09;;;;;;;0.60;0.57;;;22.10;57.90;;;;;;5112149;28;20197;-58
2023/09/14 03:03:37;;;;;;;0.70;0.70;;;22.10;57.90;;;;;;5112508;28;20217;-60
2023/09/14 03:06:04;;;;;;;1.48;0.60;;;22.10;57.80;;;;;;5113167;28;20393;-58
2023/09/14 03:08:31;;;;;;;1.15;0.77;;;22.00;57.70;;;;;;5113032;28;20217;-60
2023/09/14 03:11:04;;;;;;;0.90;0.60;;;22.10;57.80;;;;;;5112761;28;20643;-59
2023/09/14 03:13:34;;;;;;;1.58;0.73;;;22.10;57.80;;;;;;5113080;28;20224;-60
2023/09/14 03:16:04;;;;;;;1.25;0.60;;;22.00;57.70;;;;;;5112843;28;20193;-59
2023/09/14 03:18:31;;;;;;;1.35;0.98;;;22.00;57.60;;;;;;5112942;28;20229;-60
2023/09/14 03:21:00;;;;;;;1.30;0.77;;;22.10;57.60;;;;;;5112677;28;20551;-54
2023/09/14 03:23:35;;;;;;;0.73;0.60;;;22.00;57.60;;;;;;5112110;28;20232;-60
2023/09/14 03:26:03;;;;;;;1.00;0.60;;;22.00;57.50;;;;;;5112959;28;20652;-59
2023/09/14 03:28:30;;;;;;;0.40;0.40;;;22.00;57.60;;;;;;5112520;28;20221;-57
2023/09/14 03:30:57;;;;;;;0.70;0.60;;;22.00;57.40;;;;;;5112309;28;20282;-60
2023/09/14 03:33:24;;;;;;;3.28;0.68;;;22.00;57.40;;;;;;5112598;28;20209;-58
2023/09/14 03:35:51;;;;;;;0.80;0.70;;;22.00;57.40;;;;;;5112854;28;20189;-60
2023/09/14 03:38:20;;;;;;;0.98;0.60;;;22.00;57.40;;;;;;5112595;28;20229;-59
2023/09/14 03:40:47;;;;;;;0.50;0.50;;;22.00;57.40;;;;;;5112754;28;20567;-60
2023/09/14 03:43:15;;;;;;;0.75;0.50;;;22.00;57.40;;;;;;5112334;28;20665;-57
2023/09/14 03:45:42;;;;;;;0.65;0.60;;;22.00;57.40;;;;;;5112582;28;20258;-59
2023/09/14 03:48:08;;;;;;;0.50;0.50;;;22.00;57.40;;;;;;5112500;28;20766;-60
2023/09/14 03:50:35;;;;;;;0.60;0.50;;;22.00;57.30;;;;;;5112689;28;20284;-55
2023/09/14 03:53:02;;;;;;;0.50;0.50;;;22.00;57.30;;;;;;5116521;28;20305;-60
2023/09/14 03:55:29;;;;;;;0.40;0.40;;;22.00;57.30;;;;;;5116835;28;20268;-60
2023/09/14 03:57:56;;;;;;;0.60;0.50;;;21.90;57.20;;;;;;5116769;28;20233;-62
2023/09/14 04:00:25;;;;;;;0.82;0.40;;;21.90;57.20;;;;;;5116648;28;20213;-63
2023/09/14 04:02:52;;;;;;;1.67;0.40;;;21.90;57.20;;;;;;5116745;28;20217;-63
2023/09/14 04:05:19;;;;;;;0.60;0.60;;;22.00;57.30;;;;;;5116470;28;20201;-62
2023/09/14 04:07:46;;;;;;;0.57;0.57;;;21.90;57.20;;;;;;5116198;28;20620;-63
2023/09/14 04:10:13;;;;;;;0.50;0.50;;;21.90;57.20;;;;;;5116669;28;20276;-63
2023/09/14 04:12:41;;;;;;;0.40;0.40;;;21.90;57.20;;;;;;5116254;28;20299;-63
2023/09/14 04:15:09;;;;;;;0.57;0.50;;;22.00;57.30;;;;;;5116328;28;20185;-63
2023/09/14 04:17:37;;;;;;;1.15;0.50;;;21.90;57.10;;;;;;5116344;28;20249;-63
2023/09/14 04:20:10;;;;;;;0.50;0.50;;;22.00;57.20;;;;;;5116754;28;20272;-63
2023/09/14 04:22:37;;;;;;;0.50;0.43;;;21.90;57.10;;;;;;5115647;28;20887;-64
2023/09/14 04:25:05;;;;;;;0.88;0.63;;;21.90;57.10;;;;;;5116136;28;20639;-61
2023/09/14 04:27:32;;;;;;;1.05;0.60;;;21.90;57.10;;;;;;5116200;28;20285;-63
2023/09/14 04:29:59;;;;;;;0.50;0.50;;;21.90;57.10;;;;;;5116055;28;20196;-63
2023/09/14 04:32:26;;;;;;;0.50;0.47;;;21.90;57.10;;;;;;5116415;28;20272;-63
2023/09/14 04:34:54;;;;;;;0.93;0.57;;;21.90;57.10;;;;;;5115965;28;20187;-63
2023/09/14 04:37:21;;;;;;;0.40;0.40;;;21.90;57.10;;;;;;5115909;28;20545;-63
2023/09/14 04:39:48;;;;;;;0.50;0.50;;;21.90;57.10;;;;;;5116126;28;20186;-63
2023/09/14 04:42:15;;;;;;;2.47;0.60;;;21.80;56.80;;;;;;5116019;28;20284;-64
2023/09/14 04:44:42;;;;;;;0.50;0.50;;;21.90;56.90;;;;;;5115737;28;20209;-63
2023/09/14 04:47:09;;;;;;;0.70;0.60;;;21.90;56.80;;;;;;5115933;28;20189;-63
2023/09/14 04:49:35;;;;;;;0.50;0.50;;;21.90;56.80;;;;;;5115800;28;20217;-59
2023/09/14 04:52:04;;;;;;;0.77;0.60;;;21.90;56.80;;;;;;5115541;28;20195;-63
2023/09/14 04:54:31;;;;;;;0.50;0.50;;;21.80;56.70;;;;;;5115874;28;20231;-64
2023/09/14 04:56:58;;;;;;;0.50;0.50;;;21.80;56.70;;;;;;5115740;28;20192;-62
2023/09/14 04:59:25;;;;;;;0.60;0.60;;;21.80;56.60;;;;;;5115237;28;20228;-64
2023/09/14 05:01:51;;;;;;;0.50;0.50;;;21.80;57.30;;;;;;5115556;28;20192;-62
2023/09/14 05:04:18;;;;;;;0.60;0.60;;;21.90;56.70;;;;;;5114713;28;20217;-63
2023/09/14 05:06:45;;;;;;;0.65;0.60;;;21.80;56.60;;;;;;5115041;28;20667;-61
2023/09/14 05:09:13;;;;;;;0.60;0.60;;;21.80;56.60;;;;;;5115642;28;20217;-63
2023/09/14 05:11:40;;;;;;;0.95;0.70;;;21.80;56.60;;;;;;5115493;28;20195;-64
2023/09/14 05:14:07;;;;;;;0.55;0.55;;;21.80;56.60;;;;;;5115151;28;20217;-63
2023/09/14 05:16:33;;;;;;;0.70;0.60;;;21.80;56.50;;;;;;5115413;28;20211;-63
2023/09/14 05:19:00;;;;;;;0.77;0.77;;;21.80;56.50;;;;;;5115221;28;20229;-63
2023/09/14 05:21:27;;;;;;;0.95;0.65;;;21.80;56.50;;;;;;5114753;28;20192;-64
2023/09/14 05:23:54;;;;;;;0.50;0.50;;;21.80;56.50;;;;;;5115097;28;20255;-61
2023/09/14 05:26:22;;;;;;;0.60;0.50;;;21.80;56.50;;;;;;5115431;28;20190;-63
2023/09/14 05:28:49;;;;;;;0.90;0.60;;;21.70;56.30;;;;;;5114676;28;20223;-61
2023/09/14 05:31:16;;;;;;;0.63;0.60;;;21.80;56.40;;;;;;5114988;28;20296;-61
2023/09/14 05:33:42;;;;;;;1.00;0.60;;;21.80;56.30;;;;;;5114890;28;20235;-60
2023/09/14 05:36:10;;;;;;;0.40;0.40;;;21.80;56.30;;;;;;5114921;28;20189;-60
2023/09/14 05:38:36;;;;;;;0.73;0.50;;;21.80;56.40;;;;;;5114705;28;20229;-61
2023/09/14 05:41:04;;;;;;;0.50;0.50;;;21.80;56.30;;;;;;5114892;28;20181;-60
2023/09/14 05:43:32;;;;;;;0.60;0.60;;;21.80;56.30;;;;;;5114644;28;20224;-61
2023/09/14 05:46:01;;;;;;;0.47;0.47;;;21.80;56.30;;;;;;5114731;28;20553;-59
2023/09/14 05:48:28;;;;;;;0.50;0.50;;;21.80;56.30;;;;;;5114855;28;20248;-59
2023/09/14 05:50:55;;;;;;;0.73;0.73;;;21.80;56.30;;;;;;5114455;28;20185;-59
2023/09/14 05:53:22;;;;;;;0.70;0.70;;;21.70;56.20;;;;;;5114711;28;20220;-58
2023/09/14 05:55:49;;;;;;;0.70;0.57;;;21.70;56.10;;;;;;5114605;28;20217;-57
2023/09/14 05:58:16;;;;;;;0.70;0.50;;;21.80;56.20;;;;;;5114216;28;20239;-59
2023/09/14 06:00:45;;;;;;;0.80;0.50;;;21.80;56.80;;;;;;5114542;28;20564;-56
2023/09/14 06:03:12;;;;;;;0.60;0.50;;;21.70;56.10;;;;;;5114280;28;20729;-58
2023/09/14 06:05:38;;;;;;;0.50;0.50;;;21.70;56.10;;;;;;5114279;28;20272;-59
2023/09/14 06:08:06;;;;;;;1.05;0.40;;;21.70;56.00;;;;;;5113996;28;20733;-57
2023/09/14 06:10:34;;;;;;;0.50;0.50;;;21.70;56.70;;;;;;5114337;28;20628;-59
2023/09/14 06:13:01;;;;;;;0.60;0.60;;;21.70;56.00;;;;;;5113799;28;20698;-57
2023/09/14 06:15:28;;;;;;;0.40;0.40;;;21.70;56.00;;;;;;5114022;28;20185;-58
2023/09/14 06:17:56;;;;;;;1.13;0.70;;;21.80;56.20;;;;;;5113806;28;20320;-59
2023/09/14 06:20:24;;;;;;;0.40;0.40;;;21.70;56.00;;;;;;5113859;28;20185;-58
2023/09/14 06:22:51;;;;;;;0.80;0.60;;;21.70;56.10;;;;;;5113531;28;20271;-57
2023/09/14 06:25:18;;;;;;;0.60;0.60;;;21.70;56.00;;;;;;5114298;28;20284;-58
2023/09/14 06:27:45;;;;;;;0.77;0.50;;;21.70;56.00;;;;;;5113936;28;20299;-57
2023/09/14 06:30:13;;;;;;;0.60;0.52;;;21.70;56.00;;;;;;5114187;28;20193;-58
2023/09/14 06:32:40;;;;;;;2.92;0.93;;;21.70;56.00;;;;;;5113771;28;20221;-58
2023/09/14 06:35:10;;;;;;;1.98;0.70;;;21.70;56.00;;;;;;5113432;28;20188;-58
2023/09/14 06:37:38;;;;;;;1.25;0.75;;;21.70;56.00;;;;;;5112255;28;20577;-57
2023/09/14 06:40:08;;;;;;;0.93;0.70;;;21.70;56.00;;;;;;5113291;28;20221;-58
2023/09/14 06:42:38;;;;;;;1.02;0.60;;;21.70;56.00;;;;;;5112889;28;20190;-58
2023/09/14 06:45:07;;;;;;;1.73;0.65;;;21.70;56.00;;;;;;5098139;28;20245;-59
2023/09/14 06:47:36;;;;;;;0.70;0.70;;;21.70;56.60;;;;;;5098055;28;20659;-58
2023/09/14 06:50:05;;;;;;;2.33;0.70;;;21.70;56.10;;;;;;5112875;28;20259;-58
2023/09/14 06:52:35;;;;;;;0.75;0.60;;;21.70;56.10;;;;;;5112845;28;20190;-59
2023/09/14 06:55:03;;;;;;;0.95;0.60;;;21.70;56.00;;;;;;5113204;28;20224;-58
2023/09/14 06:57:32;;;;;;;0.82;0.70;;;21.80;56.10;;;;;;5112989;28;20190;-64
2023/09/14 07:00:07;;;;;;;2.92;0.75;;;21.70;56.00;;;;;;5097917;28;20266;-58
2023/09/14 07:02:37;;;;;;;1.00;0.77;;;21.70;56.00;;;;;;5089517;28;20207;-51
2023/09/14 07:05:06;;;;;;;0.63;0.55;;;21.70;56.00;;;;;;5100910;27;20193;-55
2023/09/14 07:07:38;;;;;;;0.98;0.70;;;21.70;56.10;;;;;;5090085;27;20197;-56
2023/09/14 07:10:11;;;;;;;1.52;0.70;;;21.80;56.20;;;;;;5096063;28;20197;-57
2023/09/14 07:12:41;;;;;;;0.80;0.60;;;21.80;56.30;;;;;;5054456;27;20276;-58
2023/09/14 07:15:12;;;;;;;1.00;0.90;;;21.80;56.30;;;;;;5091810;28;20190;-49
2023/09/14 07:17:42;;;;;;;2.25;0.73;;;21.80;56.20;;;;;;5092621;28;20487;-56
2023/09/14 07:20:12;;;;;;;1.63;0.80;;;21.90;56.30;;;;;;5103494;27;20209;-53
2023/09/14 07:22:43;;;;;;;0.77;0.60;;;21.90;56.30;;;;;;5109396;28;20189;-59
2023/09/14 07:25:12;;;;;;;1.25;0.90;;;22.00;56.30;;;;;;5109375;28;20264;-58
2023/09/14 07:27:42;;;;;;;1.13;0.70;;;22.10;56.30;;;;;;5085182;28;20210;-58
2023/09/14 07:30:12;;;;;;;0.60;0.60;;;22.10;56.30;;;;;;5088515;28;20273;-58
2023/09/14 07:32:41;;;;;;;1.55;0.80;;;22.10;56.30;;;;;;5126160;27;20200;-55
2023/09/14 07:35:19;;;;;;;1.13;0.80;;;22.20;56.30;;;;;;5124612;27;20268;-57
2023/09/14 07:37:49;;;;;;;0.95;0.80;;;22.20;56.20;;;;;;5039803;28;20209;-53
2023/09/14 07:40:16;;;;;;;8.38;1.23;;;22.30;56.30;;;;;;5110662;28;20213;-60
2023/09/14 07:42:47;;;;;;;3.22;0.80;;;22.30;56.20;;;;;;5111576;28;20193;-57
2023/09/14 07:45:20;;;;;;;3.53;0.77;;;22.30;56.20;;;;;;5101126;28;20193;-57
2023/09/14 07:50:29;;;;;;;2.72;0.77;;;22.40;56.20;;;;;;5071221;28;20212;-53
2023/09/14 07:53:05;;;;;;;1.88;1.00;;;22.40;56.20;;;;;;5111725;28;20191;-64
2023/09/14 07:55:54;;;;;;;1.42;0.63;;;22.40;56.10;;;;;;5102690;28;20197;-63
2023/09/14 07:58:21;;;;;;;0.73;0.52;;;22.40;56.00;;;;;;5110097;28;20319;-58
2023/09/14 08:00:49;;;;;;;0.73;0.52;;;22.40;56.00;;;;;;5096236;28;20194;-52
2023/09/14 08:03:17;;;;;;;9.88;1.08;;;22.50;56.20;;;;;;5105546;28;20296;-58
2023/09/14 08:05:54;;;;;;;;;;;;;;;;;;;;;
2023/09/14 08:08:24;;;;;;;4.25;1.00;;;22.50;56.10;;;;;;5072608;28;20254;-60
2023/09/14 08:10:56;;;;;;;1.27;0.82;;;22.50;56.10;;;;;;5107152;28;20768;-56
2023/09/14 08:13:24;;;;;;;3.95;0.80;;;22.50;56.00;;;;;;5100979;28;20682;-54
2023/09/14 08:15:51;;;;;;;3.88;1.17;;;22.60;56.10;;;;;;5088854;28;20220;-57
2023/09/14 08:21:00;;;;;;;1.52;0.60;;;22.60;56.00;;;;;;5071898;28;20213;-57
2023/09/14 08:23:30;;;;;;;2.63;0.90;;;22.60;56.00;;;;;;5108232;28;20236;-57
2023/09/14 08:25:58;;;;;;;3.78;0.65;;;22.60;56.00;;;;;;5107843;28;20200;-55
2023/09/14 08:31:06;;;;;;;4.05;0.60;;;22.60;56.00;;;;;;5031619;28;20191;-58
2023/09/14 08:33:33;;;;;;;2.60;1.15;;;22.60;56.10;;;;;;5092963;28;20228;-53
2023/09/14 08:36:00;;;;;;;2.13;0.98;;;22.70;56.10;;;;;;5097928;28;20226;-56
2023/09/14 08:38:29;;;;;;;1.85;0.90;;;22.70;56.20;;;;;;5097678;28;20628;-60
2023/09/14 08:41:04;;;;;;;3.03;0.80;;;22.60;56.00;;;;;;5100321;28;20186;-58
2023/09/14 08:43:34;;;;;;;3.15;0.93;;;22.70;56.10;;;;;;5109141;28;20680;-61
2023/09/14 08:46:11;;;;;;;2.45;0.90;;;22.70;56.10;;;;;;5105323;28;20269;-62
2023/09/14 08:48:45;;;;;;;4.78;1.17;;;22.70;56.00;;;;;;5129859;27;20276;-61
2023/09/14 08:51:13;;;;;;;1.45;0.80;;;22.70;56.00;;;;;;5109873;27;20197;-55
2023/09/14 08:53:43;;;;;;;2.42;0.98;;;22.70;56.10;;;;;;5111843;28;20196;-51
2023/09/14 08:56:14;;;;;;;2.10;1.10;;;22.80;56.20;;;;;;5110514;28;20189;-51
2023/09/14 08:59:03;;;;;;;2.80;1.40;;;22.70;56.80;;;;;;5110183;28;20296;-57
2023/09/14 09:01:32;;;;;;;3.50;1.10;;;22.80;56.20;;;;;;5103513;28;20205;-57
2023/09/14 09:04:00;;;;;;;2.90;1.10;;;22.80;56.20;;;;;;5107545;28;20217;-60
2023/09/14 09:07:22;;;;;;;;;;;;;;;;;;;;;
2023/09/14 09:09:52;;;;;;;3.72;1.10;;;22.80;56.30;;;;;;5058916;28;20222;-54
2023/09/14 09:12:19;;;;;;;2.10;1.00;;;22.80;56.20;;;;;;5099094;28;20198;-61
2023/09/14 09:14:48;;;;;;;2.35;1.10;;;22.80;56.20;;;;;;5097931;28;20221;-60
2023/09/14 09:17:19;;;;;;;2.50;0.85;;;22.80;56.20;;;;;;5091515;28;20229;-54
2023/09/14 09:22:59;;;;;;;3.72;1.10;;;22.80;56.20;;;;;;5041020;28;20323;-51
2023/09/14 09:25:43;;;;;;;4.25;1.45;;;22.90;56.30;;;;;;5040227;28;20215;-57
2023/09/14 09:28:13;;;;;;;1.88;1.02;;;22.80;56.20;;;;;;5043848;28;20191;-63
2023/09/14 09:30:42;;;;;;;1.77;1.13;;;22.90;56.20;;;;;;5051795;28;20303;-64
2023/09/14 09:33:09;;;;;;;5.03;1.35;;;22.90;56.20;;;;;;5047777;28;20278;-55
2023/09/14 09:38:49;;;;;;;1.45;1.00;;;22.90;56.10;;;;;;5043079;28;20238;-58
2023/09/14 09:41:21;;;;;;;2.60;1.25;;;23.00;56.10;;;;;;5050921;28;20212;-58
2023/09/14 09:43:51;;;;;;;7.88;0.90;;;22.90;56.00;;;;;;5051080;28;20245;-56
2023/09/14 09:46:19;;;;;;;2.05;1.27;;;22.90;56.10;;;;;;5050073;28;20216;-57
2023/09/14 09:48:47;;;;;;;1.90;1.55;;;23.00;56.10;;;;;;5049692;28;20703;-56
2023/09/14 09:51:14;;;;;;;4.57;1.25;;;22.90;56.00;;;;;;5050898;28;20219;-58
2023/09/14 09:54:03;;;;;;;7.35;1.30;;;22.90;56.10;;;;;;5071151;28;20194;-56
2023/09/14 09:56:34;;;;;;;3.47;1.20;;;23.00;56.20;;;;;;5090252;28;20663;-58
2023/09/14 09:59:09;;;;;;;2.35;1.13;;;22.90;56.10;;;;;;5093384;28;20213;-57
2023/09/14 10:01:37;;;;;;;3.17;1.30;;;23.00;56.20;;;;;;5092918;28;20217;-58
2023/09/14 10:07:23;;;;;;;5.72;1.20;;;23.00;56.20;;;;;;5035219;28;20209;-56
2023/09/14 10:09:53;;;;;;;5.10;1.65;;;23.00;56.20;;;;;;5064503;28;20321;-62
2023/09/14 10:12:39;;;;;;;1.17;1.05;;;22.90;56.10;;;;;;5095747;28;20756;-57
2023/09/14 10:15:08;;;;;;;5.22;1.42;;;23.00;56.20;;;;;;5093300;28;20233;-56
2023/09/14 10:17:42;;;;;;;4.30;1.30;;;23.00;56.20;;;;;;5108860;27;20189;-57
2023/09/14 10:20:11;;;;;;;4.47;1.30;;;23.00;56.20;;;;;;5133686;27;20232;-59
2023/09/14 10:26:21;;;;;;;3.88;1.30;;;23.00;56.20;;;;;;5086662;27;20302;-61
2023/09/14 10:28:52;;;;;;;1.45;1.10;;;23.00;56.20;;;;;;5103901;28;20300;-60
2023/09/14 10:31:20;;;;;;;3.70;1.25;;;23.00;56.20;;;;;;5092138;28;20220;-58
2023/09/14 10:33:51;;;;;;;4.10;1.10;;;23.00;56.10;;;;;;5092125;28;20182;-57
2023/09/14 10:36:20;;;;;;;2.05;1.15;;;23.00;56.10;;;;;;5091804;28;20266;-59
2023/09/14 10:38:55;;;;;;;3.75;1.27;;;23.00;56.20;;;;;;5099057;28;20203;-59
2023/09/14 10:41:23;;;;;;;4.18;1.13;;;23.00;56.20;;;;;;5111586;28;20250;-57
2023/09/14 10:43:53;;;;;;;2.58;1.25;;;23.00;56.30;;;;;;5111870;28;20279;-59
2023/09/14 10:49:43;;;;;;;2.13;1.25;;;22.90;56.30;;;;;;5049201;28;20668;-57
2023/09/14 10:56:01;;;;;;;3.45;1.60;;;23.00;56.50;;;;;;5008541;28;20274;-58
2023/09/14 10:58:59;;;;;;;1.55;1.27;;;22.90;56.50;;;;;;5009737;28;20212;-58
2023/09/14 11:01:47;;;;;;;2.28;1.17;;;22.90;56.50;;;;;;5026410;28;20307;-58
2023/09/14 11:04:15;;;;;;;3.53;1.30;;;22.80;56.50;;;;;;5019517;28;20710;-58
2023/09/14 11:06:48;;;;;;;2.22;1.40;;;22.90;56.60;;;;;;5040698;28;20223;-58
2023/09/14 11:09:16;;;;;;;1.42;1.17;;;22.90;56.70;;;;;;5047256;28;20204;-57
2023/09/14 11:11:46;;;;;;;2.33;1.10;;;22.80;56.60;;;;;;5047186;28;20220;-57
2023/09/14 11:14:15;;;;;;;2.20;1.35;;;22.90;56.70;;;;;;5048152;28;20207;-58
2023/09/14 11:16:49;;;;;;;2.22;1.30;;;22.80;56.70;;;;;;5047490;28;20220;-58
2023/09/14 11:19:52;;;;;;;2.42;1.35;;;22.80;56.70;;;;;;5047730;28;20295;-58
2023/09/14 11:22:19;;;;;;;1.80;1.30;;;22.90;56.80;;;;;;5047907;28;20188;-58
2023/09/14 11:24:47;;;;;;;1.48;1.23;;;22.80;56.70;;;;;;5047246;28;20367;-59
2023/09/14 11:27:18;;;;;;;2.72;1.60;;;22.90;56.80;;;;;;5096163;28;20686;-58
2023/09/14 11:29:46;;;;;;;1.98;1.40;;;22.90;56.90;;;;;;5110646;28;20719;-58
2023/09/14 11:32:23;;;;;;;2.10;1.30;;;22.80;56.80;;;;;;5110435;28;20193;-56
2023/09/14 11:34:56;;;;;;;2.00;1.33;;;22.80;56.80;;;;;;5111147;28;20217;-59
2023/09/14 11:37:25;;;;;;;2.88;1.50;;;22.90;56.90;;;;;;5110764;28;20195;-58
2023/09/14 11:39:54;;;;;;;2.15;1.05;;;22.80;56.90;;;;;;5110349;28;20252;-56
2023/09/14 11:42:23;;;;;;;2.42;1.40;;;22.90;57.00;;;;;;5110014;28;20654;-55
2023/09/14 11:44:56;;;;;;;1.50;1.23;;;22.90;57.00;;;;;;5110003;28;20225;-56
2023/09/14 11:47:26;;;;;;;1.70;1.30;;;22.90;57.00;;;;;;5103578;28;20292;-59
2023/09/14 11:49:57;;;;;;;2.40;1.67;;;22.90;57.00;;;;;;5104047;28;20315;-56
2023/09/14 11:52:26;;;;;;;2.45;1.40;;;23.00;57.10;;;;;;5095047;28;20686;-59
2023/09/14 11:54:53;;;;;;;1.40;1.30;;;22.80;57.00;;;;;;5090766;28;20210;-62
2023/09/14 11:57:27;;;;;;;1.85;1.30;;;22.90;57.00;;;;;;5102937;28;20196;-62
2023/09/14 11:59:54;;;;;;;1.38;1.20;;;22.90;57.00;;;;;;5110832;28;20224;-61
2023/09/14 12:02:22;;;;;;;2.03;1.50;;;22.80;57.00;;;;;;5110915;28;20228;-61
2023/09/14 12:04:53;;;;;;;1.52;1.42;;;22.90;57.10;;;;;;5110923;28;20703;-60
2023/09/14 12:07:21;;;;;;;1.83;1.17;;;22.80;57.00;;;;;;5111068;28;20189;-60
2023/09/14 12:09:48;;;;;;;1.92;1.25;;;23.00;57.20;;;;;;5124972;28;20196;-61
2023/09/14 12:12:26;;;;;;;1.92;1.60;;;22.90;57.20;;;;;;5132355;27;20188;-57
2023/09/14 12:14:58;;;;;;;1.90;1.45;;;22.80;57.10;;;;;;5135871;27;20216;-57
2023/09/14 12:17:41;;;;;;;3.15;1.40;;;22.90;57.20;;;;;;5110314;27;20190;-58
2023/09/14 12:26:57;;;;;;;2.53;1.63;;;22.90;57.20;;;;;;5100566;28;20290;-64
2023/09/14 12:29:32;;;;;;;2.40;1.58;;;22.80;57.10;;;;;;5094157;28;20198;-57
2023/09/14 12:34:48;;;;;;;4.00;1.60;;;22.80;57.20;;;;;;5024258;28;20196;-59
2023/09/14 12:37:17;;;;;;;2.30;1.45;;;23.00;57.40;;;;;;5111841;28;20274;-57
2023/09/14 12:39:48;;;;;;;2.60;1.55;;;22.90;57.30;;;;;;5100841;28;20214;-60
2023/09/14 12:42:20;;;;;;;3.17;1.73;;;22.90;57.40;;;;;;5083905;28;20197;-58
2023/09/14 12:44:48;;;;;;;4.25;1.85;;;22.80;57.30;;;;;;5112807;28;20197;-59
2023/09/14 12:47:15;;;;;;;3.50;1.83;;;22.90;57.50;;;;;;5097281;28;20218;-59
2023/09/14 12:49:43;;;;;;;2.53;1.60;;;22.90;57.80;;;;;;5102632;27;20223;-60
2023/09/14 12:55:29;;;;;;;1.40;1.30;;;22.90;57.60;;;;;;5092915;28;20254;-57
2023/09/14 12:57:58;;;;;;;2.22;1.58;;;22.90;57.60;;;;;;5092829;28;20205;-59
2023/09/14 13:00:27;;;;;;;2.45;1.63;;;23.00;57.70;;;;;;5101956;28;20240;-56
2023/09/14 13:02:56;;;;;;;6.40;1.80;;;22.90;57.50;;;;;;5100429;28;20284;-58
2023/09/14 13:08:42;;;;;;;3.25;1.60;;;23.00;57.60;;;;;;5049939;28;20199;-58
2023/09/14 13:11:22;;;;;;;3.20;1.55;;;22.90;57.50;;;;;;5070844;28;20219;-58
2023/09/14 13:13:51;;;;;;;2.03;1.40;;;23.00;57.60;;;;;;5070307;28;20217;-59
2023/09/14 13:19:04;;;;;;;2.72;1.60;;;23.00;57.70;;;;;;5069380;28;20605;-57
2023/09/14 13:27:16;;;;;;;2.60;1.75;;;23.00;57.80;;;;;;4894623;28;20213;-62
2023/09/14 13:29:46;;;;;;;3.50;1.90;;;23.00;57.70;;;;;;4969811;28;20215;-60
2023/09/14 13:32:14;;;;;;;3.15;1.30;;;23.00;57.70;;;;;;4967256;28;20210;-61
2023/09/14 13:34:41;;;;;;;2.70;1.50;;;23.00;57.70;;;;;;4942567;28;20838;-56
2023/09/14 13:37:10;;;;;;;1.75;1.40;;;22.90;57.60;;;;;;4965826;28;20383;-55
2023/09/14 13:39:42;;;;;;;2.03;1.40;;;23.00;57.80;;;;;;4910431;29;20211;-60
2023/09/14 13:42:26;;;;;;;2.08;1.55;;;23.00;57.80;;;;;;4958160;28;20261;-56
2023/09/14 13:44:56;;;;;;;2.08;1.50;;;23.00;57.80;;;;;;4974522;28;20200;-58
2023/09/14 13:47:25;;;;;;;2.75;1.63;;;23.00;57.80;;;;;;5007330;28;20678;-58
2023/09/14 13:49:52;;;;;;;1.85;1.40;;;23.00;57.80;;;;;;5080831;28;20632;-62
2023/09/14 13:52:26;;;;;;;3.58;1.70;;;23.00;57.80;;;;;;5082054;28;20198;-58
2023/09/14 13:55:01;;;;;;;1.83;1.30;;;23.00;57.90;;;;;;5081376;28;20206;-62